Time;durP1;ratioP1;P1;durP2;ratioP2;P2;SDS_P1;SDS_P2;PMS_P1;PMS_P2;Temp;Humidity;BMP_temperature;BMP_pressure;BME280_temperature;BME280_humidity;BME280_pressure;Samples;Min_cycle;Max_cycle;Signal;HPM_P1;HPM_P2
2021/07/04 00:00:08;;;;;;;6.57;6.00;;;20.90;99.90;;;;;;5089885;28;20939;-54
2021/07/04 00:02:35;;;;;;;7.37;6.67;;;20.90;99.90;;;;;;5093922;28;20479;-54
2021/07/04 00:05:01;;;;;;;7.73;5.80;;;20.90;99.90;;;;;;5094315;28;20437;-55
2021/07/04 00:07:28;;;;;;;7.83;6.10;;;20.80;99.90;;;;;;5094188;28;20446;-54
2021/07/04 00:09:56;;;;;;;7.20;6.50;;;20.90;99.90;;;;;;5093821;28;20467;-55
2021/07/04 00:12:22;;;;;;;7.90;6.47;;;20.90;99.90;;;;;;5094120;28;20436;-54
2021/07/04 00:14:49;;;;;;;7.90;7.30;;;20.90;99.90;;;;;;5093806;28;20439;-54
2021/07/04 00:17:16;;;;;;;6.87;6.23;;;20.80;99.90;;;;;;5093949;28;20451;-54
2021/07/04 00:19:42;;;;;;;9.50;6.70;;;20.90;99.90;;;;;;5093664;28;20488;-54
2021/07/04 00:22:09;;;;;;;7.43;6.67;;;20.80;99.90;;;;;;5094087;28;20466;-54
2021/07/04 00:24:36;;;;;;;10.77;6.90;;;20.80;99.90;;;;;;5094151;28;20434;-54
2021/07/04 00:27:04;;;;;;;8.00;6.70;;;20.80;99.90;;;;;;5093617;28;20431;-54
2021/07/04 00:29:31;;;;;;;7.57;6.80;;;20.80;99.90;;;;;;5093391;28;20868;-54
2021/07/04 00:31:58;;;;;;;11.27;6.97;;;20.80;99.90;;;;;;5093711;28;20458;-54
2021/07/04 00:34:24;;;;;;;10.67;6.87;;;20.80;99.90;;;;;;5093561;28;20796;-54
2021/07/04 00:36:51;;;;;;;7.80;7.03;;;20.80;99.90;;;;;;5093566;28;20442;-54
2021/07/04 00:39:18;;;;;;;8.63;7.50;;;20.80;99.90;;;;;;5091777;28;20462;-54
2021/07/04 00:41:44;;;;;;;8.30;7.53;;;20.80;99.90;;;;;;5092021;28;20474;-54
2021/07/04 00:44:12;;;;;;;8.73;7.83;;;20.80;99.90;;;;;;5093641;28;20434;-54
2021/07/04 00:46:40;;;;;;;7.80;7.07;;;20.80;99.90;;;;;;5092149;28;20458;-54
2021/07/04 00:49:07;;;;;;;7.53;6.83;;;20.90;99.90;;;;;;5091325;28;20720;-54
2021/07/04 00:51:34;;;;;;;7.87;7.17;;;20.80;99.90;;;;;;5092147;28;20536;-53
2021/07/04 00:54:01;;;;;;;10.03;6.93;;;20.80;99.90;;;;;;5092042;28;20446;-53
2021/07/04 00:56:28;;;;;;;7.17;6.47;;;20.90;99.90;;;;;;5092243;28;20605;-53
2021/07/04 00:58:55;;;;;;;7.90;6.60;;;20.90;99.90;;;;;;5091471;28;20965;-53
2021/07/04 01:01:23;;;;;;;8.60;7.60;;;20.80;99.90;;;;;;5091333;28;20478;-54
2021/07/04 01:03:50;;;;;;;7.30;6.37;;;20.80;99.90;;;;;;5091598;28;20492;-54
2021/07/04 01:06:17;;;;;;;8.40;7.63;;;20.80;99.90;;;;;;5091927;28;20842;-54
2021/07/04 01:08:44;;;;;;;8.40;6.90;;;20.80;99.90;;;;;;5091386;28;20442;-54
2021/07/04 01:11:12;;;;;;;15.53;7.57;;;20.80;99.90;;;;;;5091643;28;20562;-54
2021/07/04 01:13:39;;;;;;;9.70;7.00;;;20.80;99.90;;;;;;5091021;28;20973;-54
2021/07/04 01:16:15;;;;;;;8.10;6.87;;;20.80;99.90;;;;;;5091639;28;20828;-54
2021/07/04 01:18:45;;;;;;;7.40;6.70;;;20.70;99.90;;;;;;5090956;28;20532;-54
2021/07/04 01:21:21;;;;;;;7.97;7.23;;;20.70;99.90;;;;;;5091486;28;20567;-54
2021/07/04 01:23:49;;;;;;;7.97;7.27;;;20.70;99.90;;;;;;5091411;28;21111;-53
2021/07/04 01:26:16;;;;;;;8.00;7.20;;;20.70;99.90;;;;;;5092896;28;20458;-53
2021/07/04 01:28:42;;;;;;;8.00;7.27;;;20.70;99.90;;;;;;5091212;28;20442;-53
2021/07/04 01:31:10;;;;;;;7.70;6.90;;;20.60;99.90;;;;;;5091414;28;20462;-53
2021/07/04 01:33:48;;;;;;;8.17;7.40;;;20.60;99.90;;;;;;5093121;28;20532;-53
2021/07/04 01:36:25;;;;;;;7.60;6.90;;;20.60;99.90;;;;;;5091612;28;20438;-53
2021/07/04 01:38:53;;;;;;;8.20;7.30;;;20.50;99.90;;;;;;5090790;28;20588;-53
2021/07/04 01:41:20;;;;;;;10.80;8.30;;;20.50;99.90;;;;;;5091152;28;20481;-54
2021/07/04 01:43:50;;;;;;;9.53;7.10;;;20.30;99.90;;;;;;5092805;28;20457;-53
2021/07/04 01:46:18;;;;;;;13.30;8.30;;;20.40;99.90;;;;;;5091201;28;20511;-53
2021/07/04 01:48:46;;;;;;;8.40;7.57;;;20.50;99.90;;;;;;5092028;28;20434;-54
2021/07/04 01:51:18;;;;;;;8.83;8.00;;;20.50;99.90;;;;;;5092333;28;20799;-54
2021/07/04 01:53:46;;;;;;;8.47;7.63;;;20.40;99.90;;;;;;5090958;28;20439;-54
2021/07/04 01:56:27;;;;;;;9.47;7.00;;;20.60;99.90;;;;;;5090982;28;20455;-54
2021/07/04 01:58:58;;;;;;;7.83;7.03;;;20.60;99.90;;;;;;5090351;28;20461;-54
2021/07/04 02:01:33;;;;;;;9.10;7.70;;;20.50;99.90;;;;;;5090704;28;20862;-54
2021/07/04 02:04:00;;;;;;;8.40;7.60;;;20.50;99.90;;;;;;5090689;28;20455;-54
2021/07/04 02:06:27;;;;;;;8.10;7.37;;;20.50;99.90;;;;;;5090588;28;20446;-54
2021/07/04 02:08:53;;;;;;;8.00;6.90;;;20.50;99.90;;;;;;5091769;28;20883;-54
2021/07/04 02:11:25;;;;;;;7.70;7.10;;;20.40;99.90;;;;;;5092251;28;20537;-54
2021/07/04 02:13:57;;;;;;;7.93;7.13;;;20.50;99.90;;;;;;5090713;28;20976;-54
2021/07/04 02:16:50;;;;;;;8.00;7.30;;;20.40;99.90;;;;;;5088760;28;20546;-54
2021/07/04 02:19:38;;;;;;;8.37;7.57;;;20.30;99.90;;;;;;5088950;28;20469;-54
2021/07/04 02:22:20;;;;;;;10.07;8.53;;;20.40;99.90;;;;;;5089874;28;21006;-54
2021/07/04 02:25:16;;;;;;;9.03;8.10;;;20.40;99.90;;;;;;5077402;28;20462;-54
2021/07/04 02:27:44;;;;;;;8.17;7.57;;;20.20;99.90;;;;;;5090215;28;20831;-54
2021/07/04 02:30:18;;;;;;;8.67;7.87;;;20.40;99.90;;;;;;5089872;28;20496;-54
2021/07/04 02:32:51;;;;;;;8.43;7.53;;;20.30;99.90;;;;;;5090061;28;20449;-54
2021/07/04 02:35:18;;;;;;;8.93;8.13;;;20.30;99.90;;;;;;5090202;28;20451;-54
2021/07/04 02:37:45;;;;;;;8.20;7.40;;;20.30;99.90;;;;;;5091382;28;20472;-54
2021/07/04 02:40:19;;;;;;;8.53;7.37;;;20.30;99.90;;;;;;5089666;28;20496;-54
2021/07/04 02:42:49;;;;;;;8.30;7.50;;;20.20;99.90;;;;;;5089756;28;20503;-54
2021/07/04 02:45:18;;;;;;;8.77;7.90;;;20.20;99.90;;;;;;5089909;28;20500;-54
2021/07/04 02:47:48;;;;;;;8.43;7.57;;;20.20;99.90;;;;;;5091344;28;20435;-54
2021/07/04 02:50:20;;;;;;;8.23;7.43;;;20.10;99.90;;;;;;5089225;28;20513;-54
2021/07/04 02:52:48;;;;;;;8.17;7.37;;;20.20;99.90;;;;;;5089818;28;20439;-54
2021/07/04 02:55:15;;;;;;;7.80;7.10;;;20.00;99.90;;;;;;5089936;28;20445;-54
2021/07/04 03:01:33;;;;;;;10.70;8.07;;;20.20;99.90;;;;;;5091139;28;20400;-54
2021/07/04 03:04:00;;;;;;;8.20;7.50;;;20.20;99.90;;;;;;5089318;28;21005;-54
2021/07/04 03:06:27;;;;;;;9.07;8.27;;;19.90;99.90;;;;;;5089477;28;20447;-54
2021/07/04 03:08:54;;;;;;;8.50;7.80;;;20.20;99.90;;;;;;5090249;28;20461;-54
2021/07/04 03:11:22;;;;;;;8.17;7.47;;;20.20;99.90;;;;;;5089412;28;21018;-54
2021/07/04 03:13:49;;;;;;;12.60;8.03;;;20.00;99.90;;;;;;5089506;28;20555;-54
2021/07/04 03:16:18;;;;;;;9.50;7.67;;;20.10;99.90;;;;;;5089448;28;20445;-54
2021/07/04 03:18:48;;;;;;;9.07;7.53;;;20.10;99.90;;;;;;5088828;28;20464;-54
2021/07/04 03:21:15;;;;;;;8.77;8.07;;;20.20;99.90;;;;;;5090450;28;20547;-54
2021/07/04 03:23:43;;;;;;;10.43;8.50;;;20.00;99.90;;;;;;5089314;28;20496;-54
2021/07/04 03:26:12;;;;;;;13.83;8.57;;;20.20;99.90;;;;;;5090592;28;20429;-54
2021/07/04 03:28:38;;;;;;;11.30;7.43;;;20.10;99.90;;;;;;5089003;28;20444;-54
2021/07/04 03:31:18;;;;;;;8.77;8.00;;;20.10;99.90;;;;;;5089086;28;20564;-54
2021/07/04 03:33:46;;;;;;;10.00;8.23;;;20.00;99.90;;;;;;5090454;28;20472;-54
2021/07/04 03:36:14;;;;;;;9.00;8.10;;;20.20;99.90;;;;;;5088829;28;20455;-54
2021/07/04 03:38:43;;;;;;;8.73;7.80;;;20.10;99.90;;;;;;5088885;28;20455;-54
2021/07/04 03:41:10;;;;;;;10.30;9.40;;;20.10;99.90;;;;;;5089123;28;20472;-54
2021/07/04 03:43:36;;;;;;;8.47;7.40;;;20.00;99.90;;;;;;5090392;28;20481;-54
2021/07/04 03:46:03;;;;;;;8.47;7.67;;;20.10;99.90;;;;;;5090399;28;20509;-54
2021/07/04 03:48:36;;;;;;;9.27;8.37;;;19.90;99.90;;;;;;5088844;28;20831;-54
2021/07/04 03:51:13;;;;;;;8.50;7.67;;;20.20;99.90;;;;;;5088812;28;20567;-54
2021/07/04 03:53:40;;;;;;;9.57;8.63;;;20.20;99.90;;;;;;5088972;28;21047;-55
2021/07/04 03:56:07;;;;;;;9.50;8.60;;;20.30;99.90;;;;;;5090503;28;20425;-54
2021/07/04 03:58:34;;;;;;;8.67;7.87;;;20.10;99.90;;;;;;5088489;28;20449;-54
2021/07/04 04:01:04;;;;;;;8.83;8.00;;;20.30;99.90;;;;;;5090583;28;21127;-54
2021/07/04 04:03:38;;;;;;;10.60;8.90;;;20.30;99.90;;;;;;5090471;28;20524;-54
2021/07/04 04:06:04;;;;;;;9.53;8.73;;;20.30;99.90;;;;;;5090367;28;20537;-54
2021/07/04 04:08:40;;;;;;;9.00;8.10;;;20.50;99.90;;;;;;5088594;28;20552;-54
2021/07/04 04:11:07;;;;;;;9.17;8.27;;;20.50;99.90;;;;;;5088807;28;20461;-54
2021/07/04 04:13:40;;;;;;;9.73;8.73;;;20.40;99.90;;;;;;5089025;28;20449;-54
2021/07/04 04:16:14;;;;;;;9.83;8.63;;;20.60;99.90;;;;;;5088901;28;20449;-54
2021/07/04 04:18:44;;;;;;;9.83;8.90;;;20.40;99.90;;;;;;5088477;28;20455;-54
2021/07/04 04:21:12;;;;;;;8.80;8.00;;;20.70;99.90;;;;;;5088468;28;20792;-54
2021/07/04 04:23:43;;;;;;;9.50;8.60;;;20.80;99.90;;;;;;5090046;28;20472;-54
2021/07/04 04:26:13;;;;;;;8.67;7.87;;;20.90;99.90;;;;;;5088828;28;20453;-54
2021/07/04 04:28:40;;;;;;;12.33;9.60;;;21.00;99.90;;;;;;5089783;28;20453;-54
2021/07/04 04:31:08;;;;;;;10.53;9.23;;;21.20;99.90;;;;;;5088561;28;20797;-54
2021/07/04 04:33:35;;;;;;;9.33;8.53;;;21.30;99.90;;;;;;5090101;28;20427;-54
2021/07/04 04:36:01;;;;;;;10.20;8.60;;;21.30;99.90;;;;;;5090099;28;20427;-54
2021/07/04 04:38:28;;;;;;;10.23;9.33;;;21.20;99.90;;;;;;5088344;28;20451;-54
2021/07/04 04:40:56;;;;;;;9.80;9.00;;;21.20;99.90;;;;;;5089968;28;20524;-54
2021/07/04 04:43:24;;;;;;;8.33;7.60;;;21.10;99.90;;;;;;5090100;28;20481;-54
2021/07/04 04:45:51;;;;;;;10.17;8.90;;;21.10;99.90;;;;;;5090051;28;20496;-54
2021/07/04 04:48:17;;;;;;;11.03;9.00;;;21.00;99.90;;;;;;5091314;28;20887;-54
2021/07/04 04:50:45;;;;;;;10.80;9.80;;;21.00;99.90;;;;;;5093870;28;20470;-54
2021/07/04 04:53:11;;;;;;;11.50;10.10;;;20.90;99.90;;;;;;5093541;28;20925;-54
2021/07/04 04:55:38;;;;;;;11.33;9.50;;;20.60;99.90;;;;;;5093525;28;20422;-54
2021/07/04 04:58:06;;;;;;;11.87;9.80;;;20.70;99.90;;;;;;5093076;28;20504;-54
2021/07/04 05:00:33;;;;;;;10.03;9.20;;;20.80;99.90;;;;;;5091753;28;20468;-54
2021/07/04 05:03:05;;;;;;;11.00;9.90;;;20.80;99.90;;;;;;5093280;28;20479;-55
2021/07/04 05:05:32;;;;;;;13.23;9.70;;;20.80;99.90;;;;;;5093351;28;20870;-54
2021/07/04 05:07:58;;;;;;;17.10;11.03;;;20.80;99.90;;;;;;5093189;28;20442;-54
2021/07/04 05:10:27;;;;;;;10.50;9.50;;;20.80;99.90;;;;;;5093375;28;20896;-54
2021/07/04 05:12:53;;;;;;;13.70;9.97;;;20.80;99.90;;;;;;5093189;28;20437;-55
2021/07/04 05:15:22;;;;;;;10.83;9.87;;;20.80;99.90;;;;;;5092936;28;20429;-54
2021/07/04 05:17:48;;;;;;;11.87;10.70;;;20.80;99.90;;;;;;5092989;28;20527;-55
2021/07/04 05:20:17;;;;;;;11.33;9.63;;;20.80;99.90;;;;;;5092871;28;20490;-54
2021/07/04 05:22:44;;;;;;;14.57;11.23;;;20.80;99.90;;;;;;5092752;28;20843;-54
2021/07/04 05:25:12;;;;;;;11.10;10.10;;;20.90;99.90;;;;;;5092728;28;20980;-55
2021/07/04 05:27:41;;;;;;;11.43;10.33;;;20.90;99.90;;;;;;5092723;28;20964;-54
2021/07/04 05:30:09;;;;;;;10.67;9.67;;;21.00;99.90;;;;;;5092463;28;21025;-55
2021/07/04 05:32:37;;;;;;;11.90;9.93;;;21.10;99.90;;;;;;5092545;28;20831;-55
2021/07/04 05:35:04;;;;;;;11.17;10.07;;;21.20;99.90;;;;;;5093063;28;20430;-54
2021/07/04 05:37:31;;;;;;;15.23;10.40;;;21.30;99.90;;;;;;5092601;28;20451;-54
2021/07/04 05:40:02;;;;;;;11.67;10.67;;;21.30;99.90;;;;;;5092241;28;20460;-54
2021/07/04 05:42:28;;;;;;;12.17;11.10;;;21.40;99.90;;;;;;5092573;28;20435;-55
2021/07/04 05:44:55;;;;;;;10.87;9.77;;;21.50;99.90;;;;;;5092340;28;20479;-54
2021/07/04 05:47:22;;;;;;;11.90;10.80;;;21.50;99.90;;;;;;5092562;28;20439;-54
2021/07/04 05:49:50;;;;;;;14.00;11.63;;;21.60;99.90;;;;;;5092080;28;21001;-54
2021/07/04 05:52:16;;;;;;;11.47;10.37;;;21.60;99.90;;;;;;5092505;28;20443;-54
2021/07/04 05:54:43;;;;;;;13.43;10.30;;;21.50;99.90;;;;;;5092478;28;20729;-53
2021/07/04 05:57:10;;;;;;;11.73;10.60;;;21.60;99.90;;;;;;5090619;28;20447;-53
2021/07/04 05:59:36;;;;;;;13.07;11.00;;;21.70;99.90;;;;;;5091592;28;20464;-53
2021/07/04 06:02:03;;;;;;;13.13;11.17;;;21.70;99.90;;;;;;5092260;28;20431;-54
2021/07/04 06:04:30;;;;;;;12.67;11.17;;;22.00;99.90;;;;;;5092126;28;20483;-54
2021/07/04 06:06:58;;;;;;;13.37;12.07;;;22.10;99.90;;;;;;5092006;28;20439;-54
2021/07/04 06:09:24;;;;;;;11.43;10.43;;;22.40;99.90;;;;;;5091527;28;20953;-54
2021/07/04 06:11:51;;;;;;;12.10;11.00;;;22.60;99.90;;;;;;5092080;28;20501;-54
2021/07/04 06:14:18;;;;;;;10.83;9.93;;;22.80;99.90;;;;;;5091984;28;20458;-54
2021/07/04 06:16:45;;;;;;;12.47;11.13;;;22.90;99.90;;;;;;5091923;28;20432;-54
2021/07/04 06:19:12;;;;;;;10.60;9.60;;;23.20;99.90;;;;;;5091630;28;20456;-54
2021/07/04 06:21:38;;;;;;;10.63;9.67;;;23.30;99.90;;;;;;5091699;28;20518;-54
2021/07/04 06:24:07;;;;;;;12.03;10.93;;;23.40;99.90;;;;;;5091538;28;20465;-54
2021/07/04 06:26:33;;;;;;;9.77;8.87;;;23.50;99.90;;;;;;5091758;28;20430;-54
2021/07/04 06:29:00;;;;;;;11.37;8.37;;;23.90;99.90;;;;;;5091355;28;20901;-54
2021/07/04 06:31:28;;;;;;;8.93;8.13;;;24.10;99.80;;;;;;5091682;28;20442;-55
2021/07/04 06:33:57;;;;;;;10.40;9.30;;;24.00;99.00;;;;;;5091537;28;20492;-54
2021/07/04 06:36:24;;;;;;;9.40;8.37;;;24.10;98.70;;;;;;5091558;28;20434;-54
2021/07/04 06:38:50;;;;;;;10.80;9.47;;;24.10;98.30;;;;;;5090921;28;20427;-54
2021/07/04 06:41:18;;;;;;;9.00;8.20;;;24.30;98.30;;;;;;5091268;28;20955;-54
2021/07/04 06:43:45;;;;;;;8.50;7.80;;;24.50;97.90;;;;;;5091229;28;20483;-54
2021/07/04 06:46:12;;;;;;;9.63;8.63;;;24.50;97.40;;;;;;5089920;28;20926;-54
2021/07/04 06:48:39;;;;;;;9.67;8.77;;;24.60;97.00;;;;;;5091293;28;20464;-55
2021/07/04 06:51:06;;;;;;;9.37;8.50;;;24.60;96.50;;;;;;5091196;28;20482;-54
2021/07/04 06:53:33;;;;;;;11.23;9.20;;;24.70;96.40;;;;;;5091202;28;20429;-55
2021/07/04 06:55:59;;;;;;;9.10;8.30;;;24.70;96.10;;;;;;5091040;28;20428;-55
2021/07/04 06:58:27;;;;;;;8.60;7.80;;;24.60;95.60;;;;;;5090962;28;20441;-55
2021/07/04 07:00:54;;;;;;;11.33;7.43;;;24.70;95.30;;;;;;5091126;28;20461;-54
2021/07/04 07:03:21;;;;;;;7.87;7.07;;;24.70;94.80;;;;;;5091081;28;20640;-54
2021/07/04 07:05:47;;;;;;;7.60;6.90;;;24.70;94.40;;;;;;5091137;28;20436;-54
2021/07/04 07:08:14;;;;;;;6.87;6.27;;;24.70;93.90;;;;;;5090728;28;20443;-54
2021/07/04 07:10:41;;;;;;;8.43;7.63;;;24.70;93.40;;;;;;5090329;28;20444;-54
2021/07/04 07:13:07;;;;;;;9.10;7.53;;;24.70;92.90;;;;;;5091036;28;20433;-54
2021/07/04 07:15:39;;;;;;;7.67;6.87;;;24.60;92.70;;;;;;5089536;28;20953;-55
2021/07/04 07:18:05;;;;;;;9.20;7.60;;;24.70;92.40;;;;;;5090444;28;20540;-55
2021/07/04 07:20:32;;;;;;;7.60;6.80;;;24.70;92.30;;;;;;5090761;28;20467;-55
2021/07/04 07:22:59;;;;;;;5.37;4.87;;;24.80;92.10;;;;;;5090386;28;20591;-55
2021/07/04 07:25:37;;;;;;;6.13;5.63;;;24.80;91.20;;;;;;5089465;28;20561;-55
2021/07/04 07:28:04;;;;;;;9.93;6.80;;;24.70;90.50;;;;;;5090360;28;20432;-55
2021/07/04 07:30:31;;;;;;;9.20;7.40;;;24.70;90.70;;;;;;5090625;28;21124;-55
2021/07/04 07:32:59;;;;;;;7.50;6.80;;;24.60;91.00;;;;;;5089909;28;20429;-55
2021/07/04 07:35:26;;;;;;;5.67;5.17;;;24.80;91.00;;;;;;5090534;28;20449;-55
2021/07/04 07:37:59;;;;;;;6.00;5.40;;;24.80;90.60;;;;;;5089276;28;21056;-54
2021/07/04 07:40:25;;;;;;;8.30;5.87;;;24.70;89.40;;;;;;5088813;28;20470;-55
2021/07/04 07:42:53;;;;;;;9.40;5.40;;;24.70;89.10;;;;;;5089286;28;20842;-54
2021/07/04 07:45:20;;;;;;;5.40;4.87;;;24.70;88.10;;;;;;5090395;28;20493;-55
2021/07/04 07:47:51;;;;;;;4.40;4.00;;;24.70;87.30;;;;;;5090412;28;20443;-54
2021/07/04 07:50:19;;;;;;;4.40;4.00;;;24.60;86.10;;;;;;5089948;28;20802;-54
2021/07/04 07:52:46;;;;;;;4.93;4.40;;;24.60;85.20;;;;;;5090524;28;20451;-55
2021/07/04 07:55:13;;;;;;;4.87;4.37;;;24.50;85.30;;;;;;5089978;28;20899;-55
2021/07/04 07:57:41;;;;;;;6.13;4.50;;;24.50;85.20;;;;;;5090430;28;20434;-55
2021/07/04 08:00:10;;;;;;;5.13;4.10;;;24.50;84.50;;;;;;5089982;28;20572;-54
2021/07/04 08:02:42;;;;;;;4.70;4.30;;;24.60;84.30;;;;;;5090797;28;20404;-54
2021/07/04 08:05:13;;;;;;;4.60;4.20;;;24.60;84.30;;;;;;5088947;28;20476;-55
2021/07/04 08:07:41;;;;;;;4.53;4.00;;;24.40;83.60;;;;;;5090150;28;20894;-54
2021/07/04 08:10:09;;;;;;;4.87;4.37;;;24.50;83.00;;;;;;5089909;28;20459;-54
2021/07/04 08:12:36;;;;;;;7.10;4.30;;;24.60;82.40;;;;;;5090222;28;20526;-54
2021/07/04 08:15:04;;;;;;;5.17;4.67;;;24.60;82.50;;;;;;5089813;28;20435;-54
2021/07/04 08:17:30;;;;;;;5.13;4.63;;;24.70;82.00;;;;;;5089830;28;20454;-54
2021/07/04 08:19:57;;;;;;;6.17;5.47;;;24.70;81.50;;;;;;5088312;28;20476;-55
2021/07/04 08:22:24;;;;;;;5.37;4.87;;;24.80;81.30;;;;;;5090621;28;20428;-54
2021/07/04 08:24:53;;;;;;;5.10;4.60;;;24.80;80.50;;;;;;5093879;28;20480;-55
2021/07/04 08:27:20;;;;;;;6.60;5.00;;;24.70;80.10;;;;;;5093652;28;20438;-54
2021/07/04 08:29:46;;;;;;;7.03;4.60;;;24.90;79.70;;;;;;5093267;28;20527;-54
2021/07/04 08:32:13;;;;;;;4.50;4.10;;;25.00;79.50;;;;;;5093923;28;20443;-54
2021/07/04 08:34:40;;;;;;;4.53;4.13;;;25.10;79.80;;;;;;5093889;28;20432;-55
2021/07/04 08:37:06;;;;;;;5.47;4.10;;;25.10;79.80;;;;;;5094003;28;20440;-54
2021/07/04 08:39:33;;;;;;;5.03;4.63;;;25.30;79.60;;;;;;5093478;28;20449;-55
2021/07/04 08:42:01;;;;;;;4.80;4.40;;;25.30;79.00;;;;;;5092096;28;20487;-54
2021/07/04 08:44:27;;;;;;;5.50;4.87;;;25.40;79.40;;;;;;5093324;28;21017;-54
2021/07/04 08:46:54;;;;;;;5.33;4.80;;;25.50;78.90;;;;;;5093597;28;20943;-54
2021/07/04 08:49:21;;;;;;;8.33;4.87;;;25.60;78.70;;;;;;5093011;28;20468;-54
2021/07/04 08:51:48;;;;;;;4.87;4.33;;;25.70;78.10;;;;;;5093403;28;20432;-54
2021/07/04 08:54:15;;;;;;;4.73;4.33;;;25.80;77.00;;;;;;5093559;28;20925;-54
2021/07/04 08:56:42;;;;;;;6.13;5.40;;;25.90;76.80;;;;;;5093567;28;20429;-54
2021/07/04 08:59:10;;;;;;;10.50;5.47;;;26.00;76.80;;;;;;5093135;28;20440;-54
2021/07/04 09:01:45;;;;;;;6.80;4.30;;;26.00;76.30;;;;;;5093367;28;20425;-54
2021/07/04 09:04:14;;;;;;;5.00;4.57;;;26.10;76.30;;;;;;5093330;28;20929;-55
2021/07/04 09:06:42;;;;;;;6.63;5.47;;;26.20;76.10;;;;;;5093392;28;20528;-54
2021/07/04 09:09:17;;;;;;;5.10;4.70;;;26.20;76.90;;;;;;5092299;28;20433;-55
2021/07/04 09:11:55;;;;;;;4.80;4.40;;;26.30;77.00;;;;;;5093271;28;20429;-55
2021/07/04 09:14:35;;;;;;;5.17;4.67;;;26.50;76.20;;;;;;5093065;28;20522;-55
2021/07/04 09:17:03;;;;;;;5.23;4.73;;;26.50;76.20;;;;;;5093184;28;20464;-55
2021/07/04 09:19:30;;;;;;;6.63;4.53;;;26.60;75.60;;;;;;5092553;28;20845;-55
2021/07/04 09:21:59;;;;;;;5.73;4.53;;;26.60;74.90;;;;;;5092940;28;20900;-54
2021/07/04 09:24:27;;;;;;;6.63;4.53;;;26.70;74.60;;;;;;5092814;28;20647;-55
2021/07/04 09:26:54;;;;;;;5.30;4.90;;;26.40;74.10;;;;;;5092940;28;20476;-55
2021/07/04 09:29:41;;;;;;;5.20;4.70;;;26.70;74.00;;;;;;5092652;28;20460;-55
2021/07/04 09:32:13;;;;;;;5.40;4.83;;;26.80;72.40;;;;;;5092192;28;20453;-55
2021/07/04 09:34:40;;;;;;;4.27;3.87;;;26.80;72.60;;;;;;5091955;28;20425;-55
2021/07/04 09:37:07;;;;;;;5.23;4.73;;;26.70;72.20;;;;;;5092925;28;20431;-54
2021/07/04 09:39:34;;;;;;;5.37;4.87;;;26.80;71.80;;;;;;5092112;28;20463;-55
2021/07/04 09:42:09;;;;;;;5.67;5.07;;;27.00;71.40;;;;;;5092833;28;20440;-55
2021/07/04 09:44:39;;;;;;;5.43;4.93;;;27.10;70.50;;;;;;5092234;28;20936;-54
2021/07/04 09:47:13;;;;;;;5.47;4.93;;;27.10;70.50;;;;;;5092240;28;20532;-55
2021/07/04 09:49:40;;;;;;;5.70;4.63;;;27.20;69.70;;;;;;5091889;28;20644;-55
2021/07/04 09:52:15;;;;;;;5.40;4.90;;;27.30;69.50;;;;;;5092343;28;20785;-54
2021/07/04 09:54:54;;;;;;;5.50;5.00;;;27.40;69.00;;;;;;5092443;28;20524;-55
2021/07/04 09:57:21;;;;;;;5.57;5.07;;;27.50;68.60;;;;;;5092815;28;20434;-55
2021/07/04 09:59:47;;;;;;;5.43;4.70;;;27.50;69.10;;;;;;5091793;28;20995;-55
2021/07/04 10:02:16;;;;;;;5.10;4.70;;;27.60;68.80;;;;;;5092175;28;20424;-55
2021/07/04 10:04:43;;;;;;;6.80;5.37;;;27.70;68.30;;;;;;5092088;28;20477;-56
2021/07/04 10:07:10;;;;;;;6.00;5.43;;;27.70;67.90;;;;;;5092049;28;20516;-55
2021/07/04 10:09:40;;;;;;;4.90;4.50;;;27.80;67.80;;;;;;5091737;28;20475;-55
2021/07/04 10:12:07;;;;;;;5.30;4.80;;;27.80;67.30;;;;;;5091991;28;20433;-55
2021/07/04 10:14:34;;;;;;;5.30;4.80;;;27.80;67.30;;;;;;5091909;28;20514;-55
2021/07/04 10:17:02;;;;;;;5.67;4.90;;;27.70;67.10;;;;;;5091928;28;20502;-55
2021/07/04 10:19:31;;;;;;;5.50;4.97;;;27.70;66.60;;;;;;5090969;28;20463;-55
2021/07/04 10:22:00;;;;;;;4.73;4.37;;;27.60;65.90;;;;;;5091561;28;20481;-55
2021/07/04 10:24:27;;;;;;;5.80;4.90;;;27.60;65.70;;;;;;5091677;28;20532;-55
2021/07/04 10:26:55;;;;;;;5.67;5.00;;;27.60;65.90;;;;;;5091842;28;20428;-55
2021/07/04 10:29:27;;;;;;;5.03;4.63;;;27.70;65.70;;;;;;5089920;28;20464;-55
2021/07/04 10:31:54;;;;;;;5.57;5.10;;;27.80;66.00;;;;;;5091550;28;20499;-54
2021/07/04 10:34:26;;;;;;;5.30;4.80;;;27.70;64.90;;;;;;5091566;28;20441;-54
2021/07/04 10:36:58;;;;;;;6.20;5.33;;;27.70;64.10;;;;;;5089815;28;20462;-54
2021/07/04 10:39:26;;;;;;;4.70;4.20;;;27.70;63.90;;;;;;5091241;28;20445;-55
2021/07/04 10:41:55;;;;;;;5.07;4.57;;;27.60;64.10;;;;;;5091274;28;20765;-53
2021/07/04 10:44:37;;;;;;;7.03;4.37;;;27.60;64.20;;;;;;5091017;28;20929;-54
2021/07/04 10:47:15;;;;;;;5.53;5.03;;;27.60;63.10;;;;;;5090726;28;20933;-54
2021/07/04 10:49:54;;;;;;;5.77;4.80;;;27.60;63.10;;;;;;5104057;22;20467;-53
2021/07/04 10:52:42;;;;;;;5.37;4.87;;;27.30;62.50;;;;;;5072092;28;20431;-53
2021/07/04 10:55:11;;;;;;;5.10;4.70;;;27.50;63.30;;;;;;5071511;28;20430;-53
2021/07/04 10:57:54;;;;;;;6.23;5.70;;;27.40;63.90;;;;;;5071648;28;20460;-53
2021/07/04 11:00:27;;;;;;;7.20;5.40;;;27.40;64.40;;;;;;5071390;28;20544;-52
2021/07/04 11:02:56;;;;;;;6.33;5.67;;;27.50;63.50;;;;;;5071846;28;20421;-53
2021/07/04 11:05:45;;;;;;;5.40;4.90;;;27.80;63.10;;;;;;5071711;28;20472;-53
2021/07/04 11:08:15;;;;;;;6.43;5.10;;;27.90;63.00;;;;;;5071297;28;20905;-52
2021/07/04 11:10:56;;;;;;;5.67;5.17;;;28.00;63.10;;;;;;5071558;28;20457;-53
2021/07/04 11:13:45;;;;;;;5.70;5.20;;;28.00;62.90;;;;;;5053014;28;20783;-53
2021/07/04 11:16:14;;;;;;;5.10;4.70;;;28.10;62.80;;;;;;5053337;28;20501;-53
2021/07/04 11:18:43;;;;;;;6.40;5.90;;;28.20;62.90;;;;;;5071145;28;20499;-53
2021/07/04 11:21:10;;;;;;;17.13;5.87;;;28.10;63.00;;;;;;5071000;28;20662;-53
2021/07/04 11:23:39;;;;;;;6.50;5.90;;;28.00;62.80;;;;;;5070901;28;20956;-53
2021/07/04 11:26:16;;;;;;;5.53;4.97;;;28.20;62.80;;;;;;5071278;28;20481;-52
2021/07/04 11:28:45;;;;;;;6.37;5.37;;;28.10;62.00;;;;;;5071067;28;20531;-53
2021/07/04 11:31:28;;;;;;;5.70;5.20;;;28.00;62.40;;;;;;5071323;28;21038;-53
2021/07/04 11:33:56;;;;;;;5.90;5.17;;;28.10;61.70;;;;;;5070817;28;20523;-53
2021/07/04 11:36:57;;;;;;;5.63;5.17;;;28.00;61.90;;;;;;5053136;28;20870;-53
2021/07/04 11:39:25;;;;;;;6.40;5.80;;;27.90;62.10;;;;;;5071208;28;20437;-53
2021/07/04 11:41:53;;;;;;;5.80;5.30;;;27.90;62.20;;;;;;5052708;28;20450;-52
2021/07/04 11:44:22;;;;;;;5.83;5.33;;;28.20;62.40;;;;;;5072348;28;20433;-53
2021/07/04 11:46:50;;;;;;;5.63;5.13;;;27.90;62.00;;;;;;5052967;28;20515;-53
2021/07/04 11:49:18;;;;;;;6.67;5.13;;;27.90;62.30;;;;;;5071073;28;20452;-52
2021/07/04 11:55:33;;;;;;;6.50;5.90;;;28.00;62.30;;;;;;5070734;28;20495;-53
2021/07/04 11:58:00;;;;;;;6.17;5.50;;;27.90;61.90;;;;;;5074335;28;20432;-52
2021/07/04 12:00:31;;;;;;;5.77;5.27;;;27.90;61.40;;;;;;5056689;28;20898;-53
2021/07/04 12:02:59;;;;;;;5.60;5.20;;;27.80;61.30;;;;;;5075086;28;20434;-53
2021/07/04 12:05:26;;;;;;;7.83;5.37;;;27.80;61.00;;;;;;5075198;28;20481;-53
2021/07/04 12:07:55;;;;;;;5.70;5.20;;;27.80;61.10;;;;;;5075013;28;20761;-53
2021/07/04 12:10:22;;;;;;;5.67;5.10;;;27.80;60.80;;;;;;5075020;28;20448;-53
2021/07/04 12:12:53;;;;;;;6.37;5.87;;;27.80;60.90;;;;;;5075078;28;20531;-53
2021/07/04 12:15:20;;;;;;;5.73;4.90;;;27.80;60.70;;;;;;5056939;28;20453;-53
2021/07/04 12:17:48;;;;;;;5.70;5.07;;;27.80;61.00;;;;;;5075059;28;20431;-53
2021/07/04 12:20:19;;;;;;;5.70;5.20;;;27.70;61.00;;;;;;5074450;28;20548;-52
2021/07/04 12:22:52;;;;;;;5.40;4.90;;;27.70;60.70;;;;;;5056310;28;20438;-52
2021/07/04 12:25:21;;;;;;;6.17;5.30;;;27.80;60.80;;;;;;5074473;28;20476;-52
2021/07/04 12:27:52;;;;;;;5.87;5.37;;;27.70;60.70;;;;;;5074618;28;20982;-52
2021/07/04 12:30:21;;;;;;;6.90;5.90;;;27.70;61.60;;;;;;5074347;28;20463;-53
2021/07/04 12:32:51;;;;;;;6.40;5.80;;;27.70;60.90;;;;;;5074154;28;20960;-53
2021/07/04 12:35:30;;;;;;;6.30;5.70;;;27.80;61.00;;;;;;5074077;28;20456;-53
2021/07/04 12:38:00;;;;;;;7.10;6.40;;;27.80;60.20;;;;;;5074053;28;20464;-53
2021/07/04 12:40:29;;;;;;;6.13;5.10;;;27.90;59.90;;;;;;5073650;28;20461;-52
2021/07/04 12:43:09;;;;;;;6.10;5.53;;;27.90;59.80;;;;;;5074172;28;20524;-53
2021/07/04 12:45:36;;;;;;;6.70;5.60;;;28.00;59.40;;;;;;5073715;28;20897;-52
2021/07/04 12:48:05;;;;;;;6.30;5.70;;;28.10;59.50;;;;;;5073966;28;20437;-51
2021/07/04 12:50:46;;;;;;;6.20;5.57;;;28.20;59.60;;;;;;5074449;28;20575;-53
2021/07/04 12:53:13;;;;;;;5.63;4.93;;;28.20;58.60;;;;;;5055898;28;20491;-53
2021/07/04 12:55:47;;;;;;;5.90;5.40;;;28.20;58.50;;;;;;5055922;28;20445;-53
2021/07/04 12:58:39;;;;;;;6.00;5.10;;;28.30;58.30;;;;;;5073393;28;20864;-53
2021/07/04 13:01:28;;;;;;;5.07;4.67;;;28.30;58.20;;;;;;5073654;28;20460;-53